首页
METAR-TAF:

METAR-TAF

机场 :

吉隆坡国际机场

吉隆坡, 马来西亚

纬度: 02-44N, 经度: 101-42E, 海拔: 21米

当前天气观测

该预报发布于30分钟前的15:00 UTC
静风
温度 29°C
湿度 84%
气压 1008 hPa
能見度: 6000
少量云层高于3000英尺
散云层高于14000英尺
多云层高于28000英尺

METAR: WMKK 161500Z 00000KT 6000 FEW030 SCT140 BKN280 29/26 Q1008 NOSIG

时间: 23:30 (15:30 UTC)

预报

该预报发布于4小时和30分钟前的11:00 UTC
预报有效从16日的 12点(UTC)到 17日的 18点(UTC)
风速5节,风向西南
能見度: 9000
少量云层高于1700英尺, 积雨云.
成为
从 16日的 14点(UTC)到 16日的 15点(UTC)
风速2节,风向多变
能見度: 7000
少量云层高于3000英尺
成为
从 17日的 00点(UTC)到 17日的 02点(UTC)
风速8节,风向南转南东
能見度: 9000
少量云层高于1800英尺
成为
从 17日的 04点(UTC)到 17日的 06点(UTC)
风速7节,风向南转西南

TAF: WMKK 161100Z 1612/1718 22005KT 9000 FEW017CB BECMG 1614/1615 VRB02KT 7000 FEW030 BECMG 1700/1702 15008KT 9000 FEW018 BECMG 1704/1706 21007KT

超过4000个机场的气象观测和天气预报(METAR&TAF报告)。

可查询的气象台以黄色和红色小点在地图上表示。

将鼠标移到小点上方,可查看气象台名称。

然后点击查看天气观测和预报。

如需切换地图:点击带黑十字的绿色按钮放大地图;点击带横线的绿色按钮缩小地图;或者点击绿色箭头查看邻近地区的地图。


METAR-TAF: